TAF Text Data
IDs:
Format:
Raw Decoded Include METAR

Data at: 2102 UTC 18 Oct 2018

KTEB 182051Z 30011KT 10SM CLR 10/M06 A3031 RMK AO2 SLP262 T01001056 55005

KTEB 182022Z 1820/1924 29011KT P6SM SKC
  FM190100 VRB04KT P6SM SKC
  FM191300 24010G16KT P6SM SKC


KEWR 182051Z 28014G21KT 10SM CLR 11/M06 A3031 RMK AO2 SLP264 T01111061 55006

KEWR 181931Z 1820/1924 30011G23KT P6SM FEW060
  FM190200 29006KT P6SM SKC
  FM190700 26005KT P6SM SKC
  FM191300 24010G18KT P6SM SKC


KMMU 182045Z 3009G16KT 10SM SKC 10/M04 A3032


KABE 182051Z AUTO 28011G18KT 10SM CLR 11/M04 A3034 RMK AO2 SLP274 T01061039 56009

KABE 181725Z 1818/1918 31011KT P6SM FEW050
  FM182200 28007KT P6SM SKC
  FM190100 VRB02KT P6SM SKC
  FM191500 24008KT P6SM SKC


KAVP 182054Z 35009KT 10SM CLR 08/M04 A3033 RMK AO2 SLP273 T00831044 56009

KAVP 181723Z 1818/1918 30010KT P6SM FEW040
  FM182200 29007KT P6SM SKC
  FM190200 23004KT P6SM SKC
  FM191500 24008KT P6SM SKC


KFWN 182053Z AUTO VRB06KT 10SM CLR 09/M05 A3031 RMK AO2 SLP268 T00891050 56007


KSWF 182045Z 30010KT 20SM SKC 08/M04 A3030

KSWF 181931Z 1820/1924 29010KT P6SM FEW250
  FM190500 VRB04KT P6SM SKC
  FM191400 23010G15KT P6SM SKC AMD NOT SKED


K12N 182054Z AUTO 33005KT 09/M06 A3032 RMK AO1 SLP271 T00941061 56009